Terminal Aerodrome Forecast
Issued by NWS

Home | Current Version | Previous Version | Graphics & Text | Print | Product List | Glossary On
Versions: 1 2 3 4 5 6 7 8 9 10 11 12 13 14 15 16 17 18 19
000
FTUS43 KMPX 250520
TAFRNH
TAF
KRNH 250520Z 2506/2606 VRB03KT 3SM -DZ OVC005
     FM251500 24005KT 4SM BR VCSH OVC007
     FM251900 25009KT P6SM SCT010 OVC020
     FM260100 29009KT P6SM SCT015 OVC040=

USA.gov is the U.S. government's official web portal to all federal, state and local government web resources and services.